createdAt,value
2018-12-26T00:04:06.013Z,28.43
2018-12-26T00:06:39.732Z,27.80
2018-12-26T00:11:54.947Z,29.93
2018-12-26T00:14:28.785Z,29.37
2018-12-26T00:19:47.381Z,30.97
2018-12-26T00:22:21.321Z,30.70
2018-12-26T00:27:38.030Z,30.47
2018-12-26T00:30:11.801Z,32.30
2018-12-26T00:32:46.413Z,31.43
2018-12-26T00:35:21.036Z,31.07
2018-12-26T00:37:54.899Z,32.40
2018-12-26T00:40:28.697Z,31.80
2018-12-26T00:43:02.442Z,32.17
2018-12-26T00:45:36.208Z,30.60
2018-12-26T00:48:10.041Z,30.57
2018-12-26T00:50:43.852Z,31.70
2018-12-26T00:53:17.607Z,31.57
2018-12-26T00:55:52.101Z,33.03
2018-12-26T00:58:25.927Z,32.23
2018-12-26T01:01:00.002Z,30.80
2018-12-26T01:03:33.776Z,31.33
2018-12-26T01:06:07.564Z,30.13
2018-12-26T01:08:41.703Z,30.33
2018-12-26T01:11:15.492Z,31.00
2018-12-26T01:13:49.271Z,29.43
2018-12-26T01:16:23.024Z,31.43
2018-12-26T01:18:56.802Z,30.50
2018-12-26T01:24:19.986Z,29.33
2018-12-26T01:26:53.758Z,30.37
2018-12-26T01:29:27.519Z,31.57
2018-12-26T01:32:01.250Z,31.97
2018-12-26T01:34:35.101Z,32.10
2018-12-26T01:39:50.389Z,32.10
2018-12-26T01:42:24.909Z,32.40
2018-12-26T01:47:40.829Z,32.00
2018-12-26T01:50:14.637Z,32.50
2018-12-26T01:52:48.412Z,32.57
2018-12-26T01:58:03.626Z,32.03
2018-12-26T02:00:38.160Z,31.53
2018-12-26T02:03:12.497Z,33.20
2018-12-26T02:08:28.282Z,33.43
2018-12-26T02:11:02.097Z,33.33
2018-12-26T02:13:35.857Z,32.83
2018-12-26T02:16:09.677Z,33.90
2018-12-26T02:21:24.872Z,34.33
2018-12-26T02:26:41.177Z,35.23
2018-12-26T02:29:14.976Z,33.57
2018-12-26T02:31:48.750Z,35.13
2018-12-26T02:34:22.516Z,34.77
2018-12-26T02:39:38.549Z,35.73
2018-12-26T02:42:12.391Z,34.50
2018-12-26T02:47:27.815Z,33.90
2018-12-26T02:50:02.324Z,34.03
2018-12-26T02:52:36.100Z,32.97
2018-12-26T02:57:51.317Z,33.80
2018-12-26T03:00:25.463Z,33.77
2018-12-26T03:02:59.236Z,33.53
2018-12-26T03:05:32.986Z,34.53
2018-12-26T03:08:06.825Z,34.37
2018-12-26T03:10:40.627Z,35.30
2018-12-26T03:13:14.397Z,34.50
2018-12-26T03:15:48.159Z,36.03
2018-12-26T03:18:21.966Z,35.23
2018-12-26T03:20:55.748Z,33.90
2018-12-26T03:23:29.734Z,33.20
2018-12-26T03:26:03.798Z,33.53
2018-12-26T03:28:37.572Z,31.53
2018-12-26T03:31:11.381Z,31.47
2018-12-26T03:33:45.455Z,31.93
2018-12-26T03:36:19.946Z,31.23
2018-12-26T03:38:53.750Z,29.43
2018-12-26T03:41:27.529Z,29.17
2018-12-26T03:44:01.611Z,27.70
2018-12-26T03:46:36.515Z,29.27
2018-12-26T03:49:10.342Z,26.20
2018-12-26T03:51:44.870Z,27.03
2018-12-26T03:54:19.341Z,27.37
2018-12-26T03:59:34.928Z,25.90
2018-12-26T04:02:08.714Z,27.47
2018-12-26T04:04:42.479Z,26.13
2018-12-26T04:07:17.033Z,26.60
2018-12-26T04:09:50.900Z,27.37
2018-12-26T04:12:24.704Z,28.03
2018-12-26T04:14:59.925Z,27.70
2018-12-26T04:17:33.705Z,25.90
2018-12-26T04:20:07.994Z,28.03
2018-12-26T04:22:42.561Z,26.90
2018-12-26T04:27:56.300Z,28.60
2018-12-26T04:30:30.086Z,28.80
2018-12-26T04:33:04.581Z,28.13
2018-12-26T04:38:19.756Z,29.07
2018-12-26T04:40:53.533Z,28.00
2018-12-26T04:43:27.286Z,29.33
2018-12-26T04:48:43.925Z,28.23
2018-12-26T04:51:18.594Z,27.43
2018-12-26T04:53:52.421Z,27.47
2018-12-26T04:59:08.105Z,26.67
2018-12-26T05:01:42.267Z,26.97
2018-12-26T05:04:15.678Z,27.47
2018-12-26T05:06:50.174Z,27.47
2018-12-26T05:09:25.279Z,25.50
2018-12-26T05:14:38.935Z,26.03
2018-12-26T05:17:13.108Z,25.07
2018-12-26T05:19:47.631Z,25.20
2018-12-26T05:22:28.739Z,25.93
2018-12-26T05:25:03.262Z,25.57
2018-12-26T05:27:37.076Z,27.80
2018-12-26T05:30:10.798Z,26.77
2018-12-26T05:32:44.518Z,26.67
2018-12-26T05:35:18.319Z,27.37
2018-12-26T05:37:52.113Z,27.87
2018-12-26T05:40:25.889Z,27.80
2018-12-26T05:42:59.690Z,26.87
2018-12-26T05:45:33.616Z,27.77
2018-12-26T05:48:07.648Z,26.73
2018-12-26T05:50:41.418Z,27.73
2018-12-26T05:53:15.203Z,29.43
2018-12-26T05:55:49.754Z,28.37
2018-12-26T05:58:24.086Z,28.67
2018-12-26T06:00:57.885Z,28.77
2018-12-26T06:03:31.657Z,27.50
2018-12-26T06:06:06.197Z,25.97
2018-12-26T06:08:39.965Z,25.00
2018-12-26T06:13:55.629Z,25.70
2018-12-26T06:19:15.539Z,24.27
2018-12-26T06:21:49.703Z,25.33
2018-12-26T06:27:04.917Z,25.20
2018-12-26T06:29:38.685Z,24.77
2018-12-26T06:32:12.440Z,25.27
2018-12-26T06:34:46.153Z,24.47
2018-12-26T06:37:20.233Z,22.77
2018-12-26T06:39:54.035Z,24.70
2018-12-26T06:42:29.241Z,23.60
2018-12-26T06:45:02.933Z,24.80
2018-12-26T06:47:36.764Z,23.33
2018-12-26T06:50:11.294Z,25.13
2018-12-26T06:52:46.141Z,24.07
2018-12-26T06:55:20.234Z,24.37
2018-12-26T06:57:59.999Z,24.57
2018-12-26T07:00:28.529Z,25.57
2018-12-26T07:03:02.289Z,24.70
2018-12-26T07:05:36.069Z,23.77
2018-12-26T07:08:10.613Z,24.83
2018-12-26T07:10:45.058Z,24.40
2018-12-26T07:13:18.830Z,24.47
2018-12-26T07:15:53.304Z,22.60
2018-12-26T07:18:27.081Z,24.90
2018-12-26T07:21:00.857Z,23.70
2018-12-26T07:23:35.381Z,24.27
2018-12-26T07:26:09.542Z,24.07
2018-12-26T07:28:43.613Z,23.53
2018-12-26T07:31:18.093Z,25.00
2018-12-26T07:33:51.817Z,24.47
2018-12-26T07:36:25.631Z,24.60
2018-12-26T07:38:59.368Z,25.17
2018-12-26T07:41:33.409Z,25.20
2018-12-26T07:44:07.159Z,24.63
2018-12-26T07:46:40.894Z,25.23
2018-12-26T07:49:14.666Z,24.87
2018-12-26T07:51:48.410Z,25.43
2018-12-26T07:54:22.181Z,25.40
2018-12-26T07:56:56.273Z,24.57
2018-12-26T07:59:37.427Z,22.90
2018-12-26T08:02:03.872Z,23.80
2018-12-26T08:04:37.695Z,23.57
2018-12-26T08:07:11.526Z,23.10
2018-12-26T08:09:46.035Z,24.97
2018-12-26T08:12:20.318Z,21.97
2018-12-26T08:14:54.494Z,23.53
2018-12-26T08:17:29.040Z,21.90
2018-12-26T08:20:02.832Z,22.60
2018-12-26T08:25:17.690Z,22.70
2018-12-26T08:27:52.252Z,22.93
2018-12-26T08:30:26.036Z,21.10
2018-12-26T08:32:59.789Z,23.10
2018-12-26T08:35:33.550Z,22.47
2018-12-26T08:40:47.128Z,21.83
2018-12-26T08:43:20.895Z,21.27
2018-12-26T08:45:55.385Z,21.47
2018-12-26T08:48:29.136Z,21.63
2018-12-26T08:53:45.065Z,21.87
2018-12-26T08:59:00.293Z,19.70
2018-12-26T09:01:34.072Z,21.03
2018-12-26T09:04:10.879Z,21.40
2018-12-26T09:09:20.087Z,20.40
2018-12-26T09:11:53.892Z,20.27
2018-12-26T09:17:07.948Z,21.40
2018-12-26T09:19:41.730Z,19.30
2018-12-26T09:22:16.301Z,18.83
2018-12-26T09:27:29.610Z,18.30
2018-12-26T09:30:04.145Z,19.97
2018-12-26T09:32:37.909Z,19.47
2018-12-26T09:37:58.449Z,19.50
2018-12-26T09:40:33.300Z,18.70
2018-12-26T09:43:07.080Z,18.13
2018-12-26T09:48:22.997Z,19.00
2018-12-26T09:50:57.849Z,20.07
2018-12-26T09:53:31.637Z,19.97
2018-12-26T09:56:06.149Z,19.10
2018-12-26T09:58:40.836Z,19.33
2018-12-26T10:03:54.034Z,18.73
2018-12-26T10:09:14.083Z,18.80
2018-12-26T10:11:47.861Z,16.77
2018-12-26T10:17:03.059Z,18.20
2018-12-26T10:19:36.888Z,16.03
2018-12-26T10:22:10.636Z,17.30
2018-12-26T10:27:23.941Z,16.50
2018-12-26T10:29:57.732Z,17.80
2018-12-26T10:32:31.520Z,16.77
2018-12-26T10:35:05.258Z,16.57
2018-12-26T10:37:40.966Z,16.30
2018-12-26T10:42:56.838Z,16.53
2018-12-26T10:48:12.093Z,15.37
2018-12-26T10:50:46.683Z,15.07
2018-12-26T10:53:20.553Z,15.27
2018-12-26T10:58:35.745Z,15.13
2018-12-26T11:01:09.520Z,14.77
2018-12-26T11:03:43.367Z,14.67
2018-12-26T11:09:01.413Z,13.10
2018-12-26T11:11:35.216Z,13.60
2018-12-26T11:14:09.007Z,13.40
2018-12-26T11:16:43.053Z,14.43
2018-12-26T11:19:16.835Z,13.47
2018-12-26T11:21:51.473Z,13.20
2018-12-26T11:24:25.586Z,12.93
2018-12-26T11:29:40.806Z,12.17
2018-12-26T11:32:15.357Z,12.00
2018-12-26T11:34:49.375Z,12.83
2018-12-26T11:37:23.117Z,11.57
2018-12-26T11:39:56.925Z,11.17
2018-12-26T11:42:30.736Z,11.23
2018-12-26T11:45:04.463Z,11.97
2018-12-26T11:47:39.648Z,11.77
2018-12-26T11:50:13.431Z,12.10
2018-12-26T11:52:47.262Z,12.13
2018-12-26T11:55:21.030Z,12.30
2018-12-26T11:57:54.783Z,11.93
2018-12-26T12:03:08.393Z,12.67
2018-12-26T12:08:23.720Z,10.77
2018-12-26T12:10:57.788Z,10.50
2018-12-26T12:13:32.318Z,10.73
2018-12-26T12:16:06.081Z,11.43
2018-12-26T12:18:40.172Z,10.83
2018-12-26T12:21:19.820Z,12.27
2018-12-26T12:23:53.536Z,10.43
2018-12-26T12:26:28.393Z,10.83
2018-12-26T12:29:01.352Z,11.23
2018-12-26T12:31:35.152Z,11.83
2018-12-26T12:34:08.933Z,12.13
2018-12-26T12:36:42.994Z,10.77
2018-12-26T12:39:16.781Z,12.60
2018-12-26T12:41:51.677Z,11.20
2018-12-26T12:44:25.433Z,10.93
2018-12-26T12:46:59.193Z,11.23
2018-12-26T12:52:12.758Z,10.93
2018-12-26T12:57:29.394Z,11.97
2018-12-26T13:00:03.181Z,10.63
2018-12-26T13:02:36.941Z,11.03
2018-12-26T13:07:52.401Z,10.50
2018-12-26T13:10:26.192Z,11.60
2018-12-26T13:12:59.981Z,10.57
2018-12-26T13:18:16.082Z,10.10
2018-12-26T13:20:55.651Z,10.60
2018-12-26T13:23:29.405Z,9.93
2018-12-26T13:28:44.826Z,10.93
2018-12-26T13:31:18.617Z,10.37
2018-12-26T13:33:53.124Z,9.97
2018-12-26T13:39:09.775Z,10.03
2018-12-26T13:41:44.307Z,10.07
2018-12-26T13:47:00.339Z,9.67
2018-12-26T13:49:34.154Z,11.17
2018-12-26T13:52:07.908Z,10.27
2018-12-26T13:57:24.125Z,9.63
2018-12-26T14:00:02.416Z,9.03
2018-12-26T14:02:32.452Z,10.27
2018-12-26T14:05:07.529Z,9.80
2018-12-26T14:07:41.302Z,9.50
2018-12-26T14:12:57.599Z,9.60
2018-12-26T14:18:17.664Z,11.57
2018-12-26T14:23:31.293Z,9.47
2018-12-26T14:28:50.983Z,9.33
2018-12-26T14:31:24.759Z,9.73
2018-12-26T14:33:59.542Z,9.30
2018-12-26T14:39:14.549Z,9.27
2018-12-26T14:41:48.334Z,11.13
2018-12-26T14:47:07.997Z,9.10
2018-12-26T14:49:42.548Z,8.67
2018-12-26T14:52:16.408Z,10.50
2018-12-26T14:54:50.429Z,8.23
2018-12-26T14:57:24.945Z,9.27
2018-12-26T14:59:58.743Z,9.50
2018-12-26T15:02:32.769Z,9.40
2018-12-26T15:05:07.520Z,8.10
2018-12-26T15:07:42.412Z,7.60
2018-12-26T15:13:02.131Z,7.63
2018-12-26T15:18:16.906Z,7.60
2018-12-26T15:20:51.427Z,9.20
2018-12-26T15:23:28.582Z,8.07
2018-12-26T15:26:02.317Z,8.57
2018-12-26T15:28:36.832Z,8.33
2018-12-26T15:33:50.467Z,9.13
2018-12-26T15:39:10.837Z,10.23
2018-12-26T15:41:44.929Z,7.87
2018-12-26T15:44:18.738Z,9.23
2018-12-26T15:46:52.474Z,9.93
2018-12-26T15:49:26.307Z,8.90
2018-12-26T15:52:00.178Z,8.40
2018-12-26T15:54:34.240Z,7.80
2018-12-26T15:57:07.973Z,8.23
2018-12-26T15:59:43.156Z,7.93
2018-12-26T16:04:56.835Z,8.50
2018-12-26T16:07:30.888Z,8.07
2018-12-26T16:10:05.462Z,6.97
2018-12-26T16:15:19.866Z,8.50
2018-12-26T16:17:54.428Z,8.57
2018-12-26T16:23:10.418Z,8.13
2018-12-26T16:25:44.205Z,8.50
2018-12-26T16:28:18.712Z,8.43
2018-12-26T16:30:52.430Z,8.43
2018-12-26T16:33:27.025Z,8.23
2018-12-26T16:36:00.819Z,8.57
2018-12-26T16:38:35.170Z,7.97
2018-12-26T16:41:08.901Z,7.97
2018-12-26T16:43:43.574Z,7.80
2018-12-26T16:46:17.569Z,8.43
2018-12-26T16:48:51.647Z,7.80
2018-12-26T16:51:26.129Z,8.53
2018-12-26T16:53:59.922Z,7.77
2018-12-26T16:56:33.675Z,7.87
2018-12-26T16:59:08.488Z,8.27
2018-12-26T17:01:42.264Z,8.07
2018-12-26T17:04:16.014Z,7.97
2018-12-26T17:06:50.502Z,7.83
2018-12-26T17:09:24.266Z,7.27
2018-12-26T17:14:37.962Z,7.47
2018-12-26T17:17:11.790Z,8.17
2018-12-26T17:19:50.663Z,7.63
2018-12-26T17:22:24.381Z,7.90
2018-12-26T17:24:58.153Z,7.70
2018-12-26T17:27:32.218Z,9.20
2018-12-26T17:30:06.091Z,7.73
2018-12-26T17:32:39.817Z,9.03
2018-12-26T17:35:13.611Z,9.83
2018-12-26T17:43:08.391Z,10.37
2018-12-26T17:48:21.949Z,10.33
2018-12-26T17:50:56.520Z,10.70
2018-12-26T17:57:08.778Z,10.00
2018-12-26T18:00:30.876Z,10.73
2018-12-26T18:03:04.810Z,10.87
2018-12-26T18:08:20.106Z,11.70
2018-12-26T18:10:54.177Z,11.43
2018-12-26T18:13:27.952Z,13.77
2018-12-26T18:18:41.212Z,12.07
2018-12-26T18:21:15.716Z,11.40
2018-12-26T18:23:49.836Z,11.27
2018-12-26T18:29:07.292Z,11.00
2018-12-26T18:31:41.869Z,11.27
2018-12-26T18:36:58.090Z,11.80
2018-12-26T18:39:31.884Z,11.47
2018-12-26T18:42:05.694Z,11.53
2018-12-26T18:47:20.869Z,10.93
2018-12-26T18:49:54.969Z,11.03
2018-12-26T18:52:28.728Z,11.23
2018-12-26T18:57:52.772Z,10.83
2018-12-26T19:00:26.566Z,11.30
2018-12-26T19:03:01.100Z,10.70
2018-12-26T19:05:35.722Z,9.70
2018-12-26T19:08:09.818Z,8.77
2018-12-26T19:10:44.385Z,8.20
2018-12-26T19:15:59.639Z,8.00
2018-12-26T19:18:33.335Z,8.20
2018-12-26T19:21:07.843Z,8.47
2018-12-26T19:23:41.593Z,7.30
2018-12-26T19:26:15.397Z,7.93
2018-12-26T19:28:49.935Z,6.63
2018-12-26T19:34:03.226Z,6.53
2018-12-26T19:36:37.051Z,6.50
2018-12-26T19:39:11.560Z,6.93
2018-12-26T19:41:45.658Z,6.60
2018-12-26T19:44:19.430Z,5.97
2018-12-26T19:46:54.540Z,6.63
2018-12-26T19:49:27.696Z,5.83
2018-12-26T19:52:01.400Z,6.10
2018-12-26T19:54:35.224Z,5.27
2018-12-26T19:57:09.051Z,5.23
2018-12-26T19:59:42.806Z,5.03
2018-12-26T20:02:16.602Z,4.00
2018-12-26T20:04:50.729Z,4.43
2018-12-26T20:07:24.523Z,4.30
2018-12-26T20:09:58.370Z,3.73
2018-12-26T20:17:53.587Z,3.60
2018-12-26T20:20:27.389Z,4.20
2018-12-26T20:23:01.149Z,4.00
2018-12-26T20:25:34.909Z,3.20
2018-12-26T20:28:09.034Z,3.00
2018-12-26T20:30:43.656Z,2.90
2018-12-26T20:33:17.404Z,2.60
2018-12-26T20:35:52.556Z,2.80
2018-12-26T20:38:25.759Z,3.20
2018-12-26T20:40:59.860Z,2.93
2018-12-26T20:43:33.599Z,2.70
2018-12-26T20:46:07.358Z,2.80
2018-12-26T20:48:41.158Z,2.80
2018-12-26T20:51:14.935Z,2.57
2018-12-26T20:53:50.036Z,2.73
2018-12-26T20:56:22.439Z,2.80
2018-12-26T20:58:56.221Z,2.30
2018-12-26T21:01:29.933Z,2.53
2018-12-26T21:04:04.002Z,2.40
2018-12-26T21:06:37.787Z,2.53
2018-12-26T21:09:12.302Z,2.67
2018-12-26T21:14:26.654Z,2.37
2018-12-26T21:19:41.883Z,2.47
2018-12-26T21:22:15.676Z,2.70
2018-12-26T21:24:50.181Z,2.37
2018-12-26T21:27:24.150Z,3.00
2018-12-26T21:29:58.237Z,2.70
2018-12-26T21:32:32.028Z,2.50
2018-12-26T21:35:07.125Z,2.63
2018-12-26T21:37:40.850Z,2.80
2018-12-26T21:40:14.659Z,2.47
2018-12-26T21:42:48.544Z,2.20
2018-12-26T21:45:24.878Z,2.47
2018-12-26T21:47:57.499Z,2.70
2018-12-26T21:50:31.618Z,2.43
2018-12-26T21:53:05.361Z,3.67
2018-12-26T21:55:39.825Z,3.23
2018-12-26T21:58:13.598Z,3.40
2018-12-26T22:00:47.444Z,2.50
2018-12-26T22:03:21.197Z,3.30
2018-12-26T22:05:55.727Z,3.00
2018-12-26T22:08:29.511Z,2.43
2018-12-26T22:13:48.005Z,3.00
2018-12-26T22:16:21.776Z,2.33
2018-12-26T22:18:56.316Z,1.77
2018-12-26T22:21:30.898Z,2.10
2018-12-26T22:24:04.729Z,1.87
2018-12-26T22:26:43.208Z,2.37
2018-12-26T22:29:12.292Z,2.43
2018-12-26T22:31:46.037Z,2.83
2018-12-26T22:36:59.330Z,2.60
2018-12-26T22:39:33.404Z,2.70
2018-12-26T22:42:07.157Z,3.07
2018-12-26T22:44:41.189Z,2.70
2018-12-26T22:47:14.946Z,2.87
2018-12-26T22:49:49.811Z,3.20
2018-12-26T22:52:23.544Z,3.13
2018-12-26T22:54:57.293Z,3.37
2018-12-26T22:57:31.874Z,3.60
2018-12-26T23:00:06.987Z,3.70
2018-12-26T23:02:41.059Z,3.50
2018-12-26T23:05:15.885Z,3.80
2018-12-26T23:07:50.403Z,3.60
2018-12-26T23:10:24.886Z,3.43
2018-12-26T23:12:58.657Z,3.90
2018-12-26T23:15:32.460Z,4.20
2018-12-26T23:20:47.634Z,4.50
2018-12-26T23:23:22.137Z,4.50
2018-12-26T23:25:56.651Z,4.50
2018-12-26T23:28:30.618Z,4.70
2018-12-26T23:31:04.221Z,4.73
2018-12-26T23:33:38.062Z,5.13
2018-12-26T23:36:11.803Z,4.13
2018-12-26T23:38:46.269Z,3.90
2018-12-26T23:41:20.117Z,3.30
2018-12-26T23:43:54.306Z,3.27
2018-12-26T23:46:28.123Z,3.60
2018-12-26T23:49:01.914Z,3.23
2018-12-26T23:51:35.712Z,3.90
2018-12-26T23:54:09.453Z,3.40
2018-12-26T23:56:43.217Z,3.70
2018-12-26T23:59:16.964Z,3.23
